• Join FlightAware (Why Join?)
  • Login
  • US Flag 
08:55PM EDT


 

Airport Tracker/Info


-or-


 

Live Flight TrackerFlight Track Log ✈ UAL33 ✈ 13-Jun-2013 ✈ KIAH - KORD

Flight Track Log - Related Links

Times and Time Zones

All times are in EDT time to prevent confusion due to time zone crossing. See the UAL33 flight status page for this flight to view local times or setup timezone preferences in your user account.

Time Position Orientation Groundspeed Altitude Reporting Facility
EDT Latitude Longitude Course Direction KTS MPH feet Rate Location/Type
05:26PM 29.9577 -95.3403 160° South 161 185 900  Level FlightAware ADS-B
05:26PM 29.9510 -95.3393 173° South 164 189 1,200 1,620 Climbing FlightAware ADS-B
05:26PM 29.9410 -95.3426 196° South 182 209 1,500 1,020 Climbing FlightAware ADS-B
05:26PM 29.9379 -95.3453 217° Southwest 191 220 1,500 720 Level FlightAware ADS-B
05:26PM 29.9358 -95.3479 227° Southwest 196 226 1,600 1,620 Climbing FlightAware ADS-B
05:26PM 29.9324 -95.3544 239° Southwest 204 235 1,800 1,260 Climbing FlightAware ADS-B
05:27PM 29.9303 -95.3625 253° West 222 255 1,900 1,080 Climbing FlightAware ADS-B
05:27PM 29.9300 -95.3673 266° West 228 262 2,000 1,680 Climbing FlightAware ADS-B
05:27PM 29.9301 -95.3710 272° West 230 265 2,100 2,220 Climbing FlightAware ADS-B
05:27PM 29.9310 -95.3769 280° West 236 272 2,300 2,160 Climbing FlightAware ADS-B
05:27PM 29.9333 -95.3844 289° West 242 278 2,500 1,800 Climbing FlightAware ADS-B
05:27PM 29.9356 -95.3890 300° West 248 285 2,600 1,320 Climbing FlightAware ADS-B
05:27PM 29.9388 -95.3940 306° West 256 295 2,700 1,500 Climbing FlightAware ADS-B
05:27PM 29.9419 -95.3976 315° West 261 300 2,800 1,680 Climbing FlightAware ADS-B
05:27PM 29.9451 -95.4007 320° Northwest 266 306 2,900 1,500 Climbing FlightAware ADS-B
05:27PM 29.9499 -95.4043 327° Northwest 271 312 3,000 1,980 Climbing FlightAware ADS-B
05:27PM 29.9551 -95.4073 333° Northwest 275 316 3,200 2,220 Climbing FlightAware ADS-B
05:27PM 29.9592 -95.4092 338° Northwest 275 316 3,300 2,220 Climbing FlightAware ADS-B
05:27PM 29.9650 -95.4112 343° North 273 314 3,500 1,980 Climbing FlightAware ADS-B
05:27PM 29.9702 -95.4123 350° North 273 314 3,600 1,500 Climbing FlightAware ADS-B
05:28PM 29.9748 -95.4131 351° North 276 318 3,700 1,020 Climbing FlightAware ADS-B
05:28PM 29.9918 -95.4152 354° North 274 315 3,900 420 Climbing FlightAware ADS-B
05:28PM 30.0108 -95.4173 355° North 273 314 3,900  Level FlightAware ADS-B
05:29PM 30.0910 -95.4271 354° North 275 316 3,900  Level FlightAware ADS-B
05:29PM 30.1110 -95.4296 354° North 275 316 3,900  Level FlightAware ADS-B
05:30PM 30.1299 -95.4320 354° North 274 315 3,900  Level FlightAware ADS-B
05:30PM 30.1467 -95.4351 349° North 275 316 3,900 1,320 Level FlightAware ADS-B
05:30PM 30.1674 -95.4448 338° Northwest 275 316 4,600 2,700 Climbing FlightAware ADS-B
05:30PM 30.1726 -95.4480 332° Northwest 276 318 4,900 3,360 Climbing FlightAware ADS-B
05:31PM 30.2149 -95.4718 334° Northwest 284 327 6,900 3,180 Climbing FlightAware ADS-B
05:31PM 30.2341 -95.4826 334° Northwest 289 333 7,700 3,000 Climbing FlightAware ADS-B
05:31PM 30.2534 -95.4933 334° Northwest 294 338 8,500 3,060 Climbing FlightAware ADS-B
05:32PM 30.2804 -95.5083 334° Northwest 297 342 9,600 2,520 Climbing FlightAware ADS-B
05:32PM 30.3188 -95.5298 334° Northwest 324 373 10,700 2,160 Climbing FlightAware ADS-B
05:33PM 30.3622 -95.5542 334° Northwest 345 397 11,800 2,580 Climbing FlightAware ADS-B
05:33PM 30.4136 -95.5832 334° Northwest 357 411 13,500 2,940 Climbing FlightAware ADS-B
05:34PM 30.5020 -95.6332 334° Northwest 375 432 16,400 2,820 Climbing FlightAware ADS-B
05:35PM 30.5563 -95.6637 334° Northwest 384 442 17,900 2,580 Climbing FlightAware ADS-B
05:35PM 30.6057 -95.6896 336° Northwest 392 451 19,200 2,400 Climbing FlightAware ADS-B
05:38PM 30.9321 -95.8646 335° Northwest 432 497 26,600 2,280 Climbing FlightAware ADS-B
05:39PM 30.9874 -95.8942 335° Northwest 438 504 27,600 2,040 Climbing FlightAware ADS-B
05:40PM 31.1000 -95.9542 336° Northwest 445 512 29,700 1,860 Climbing FlightAware ADS-B
05:41PM 31.2629 -96.0003 349° North 462 532 32,000 1,620 Climbing FlightAware ADS-B
05:42PM 31.3945 -96.0311 349° North 471 542 33,600 1,500 Climbing FlightAware ADS-B
05:43PM 31.4602 -96.0465 349° North 473 544 34,400 1,320 Climbing FlightAware ADS-B
05:43PM 31.5273 -96.0622 349° North 478 550 35,000 1,140 Climbing FlightAware ADS-B
05:44PM 31.5970 -96.0790 348° North 484 557 35,600 1,140 Climbing FlightAware
05:44PM 31.6312 -96.0868 349° North 487 560 35,900 1,260 Climbing FlightAware ADS-B
05:45PM 31.7128 -96.1059 349° North 489 563 36,700 1,320 Climbing FlightAware ADS-B
05:46PM 31.8661 -96.1422 349° North 483 556 38,300 780 Climbing FlightAware ADS-B
05:48PM 32.0918 -96.1957 349° North 485 558 39,000 240 Climbing FlightAware ADS-B
05:48PM 32.1980 -96.2164 354° North 481 554 39,000  Level FlightAware ADS-B
05:49PM 32.2478 -96.2189 358° North 481 554 39,000  Level FlightAware ADS-B
05:50PM 32.3922 -96.2204 359° North 481 554 39,000  Level FlightAware ADS-B
05:51PM 32.5100 -96.2220 359° North 504 580 39,000  Level FlightAware
05:51PM 32.6060 -96.2230 359° North 506 582 39,000  Level FlightAware
05:52PM 32.6970 -96.2240 359° North 502 578 39,000  Level FlightAware
05:53PM 32.8110 -96.2250 360° North 499 574 39,000  Level FlightAware
05:53PM 32.9010 -96.2270 359° North 500 575 39,000  Level FlightAware
05:54PM 32.9970 -96.2280 359° North 499 574 39,000  Level FlightAware
05:55PM 33.1030 -96.2290 360° North 499 574 39,000  Level FlightAware
05:56PM 33.1850 -96.2300 359° North 498 573 39,000  Level FlightAware
05:56PM 33.2930 -96.2310 360° North 499 574 39,000  Level FlightAware
05:57PM 33.3890 -96.2320 360° North 500 575 39,000  Level FlightAware
05:58PM 33.4810 -96.2330 359° North 501 577 39,000  Level FlightAware
05:58PM 33.5300 -96.2300 North 501 577 39,000  Level FlightAware
05:59PM 33.6430 -96.1980 13° North 500 575 39,000  Level FlightAware
05:59PM 33.7220 -96.1710 16° North 502 578 39,000  Level FlightAware
06:00PM 33.8640 -96.1230 16° North 500 575 39,000  Level FlightAware
06:01PM 33.9530 -96.0930 16° North 497 572 39,000  Level FlightAware
06:02PM 34.0520 -96.0590 16° North 497 572 39,000  Level FlightAware
06:03PM 34.1350 -96.0300 16° North 497 572 39,000  Level FlightAware
06:03PM 34.2310 -95.9970 16° North 494 568 39,000  Level FlightAware
06:04PM 34.3290 -95.9630 16° North 494 568 39,000  Level FlightAware
06:05PM 34.4080 -95.9360 16° North 493 567 39,000  Level FlightAware
06:06PM 34.5300 -95.8940 16° North 491 565 39,000  Level FlightAware
06:06PM 34.6140 -95.8650 16° North 490 564 39,000  Level FlightAware
06:07PM 34.7300 -95.8240 16° North 489 563 39,000  Level FlightAware
06:08PM 34.8100 -95.7960 16° North 488 562 39,000  Level FlightAware
06:09PM 34.9190 -95.7210 29° Northeast 491 565 39,000  Level FlightAware
06:09PM 34.9750 -95.6370 51° Northeast 495 570 39,000  Level FlightAware
06:10PM 35.0480 -95.5530 43° Northeast 495 570 39,000  Level FlightAware
06:11PM 35.0960 -95.4980 43° Northeast 495 570 39,000  Level FlightAware
06:12PM 35.1980 -95.3810 43° Northeast 495 570 39,000  Level FlightAware
06:12PM 35.2870 -95.2710 45° Northeast 492 566 39,000  Level FlightAware
06:13PM 35.3770 -95.1660 44° Northeast 492 566 39,000  Level FlightAware
06:14PM 35.4240 -95.1090 45° Northeast 495 570 39,000  Level FlightAware
06:15PM 35.4960 -95.0250 44° Northeast 495 570 39,000  Level FlightAware
06:15PM 35.5690 -94.9380 44° Northeast 493 567 39,000  Level FlightAware
06:16PM 35.6450 -94.8470 44° Northeast 492 566 39,000  Level FlightAware
06:17PM 35.7120 -94.7670 44° Northeast 492 566 39,000  Level FlightAware
06:17PM 35.7800 -94.6860 44° Northeast 492 566 39,000  Level FlightAware
06:18PM 35.8550 -94.5960 44° Northeast 491 565 39,000  Level FlightAware
06:19PM 35.9190 -94.5190 44° Northeast 492 566 39,000  Level FlightAware
06:20PM 35.9890 -94.4330 45° Northeast 494 568 39,000  Level FlightAware
06:20PM 36.0560 -94.3530 44° Northeast 494 568 39,000  Level FlightAware
06:21PM 36.1210 -94.2740 44° Northeast 495 570 39,000  Level FlightAware
06:22PM 36.1900 -94.1900 44° Northeast 494 568 39,000  Level FlightAware
06:22PM 36.2630 -94.1120 41° Northeast 495 570 39,000  Level FlightAware
06:23PM 36.3450 -94.0530 30° Northeast 496 571 39,000  Level FlightAware
06:24PM 36.4300 -93.9930 30° Northeast 494 568 39,000  Level FlightAware
06:24PM 36.5160 -93.9330 29° Northeast 493 567 39,000  Level FlightAware
06:25PM 36.5960 -93.8760 30° Northeast 495 570 39,000  Level FlightAware
06:26PM 36.6770 -93.8190 29° Northeast 493 567 39,000  Level FlightAware
06:27PM 36.7700 -93.7530 30° Northeast 492 566 39,000  Level FlightAware
06:27PM 36.8500 -93.6960 30° Northeast 488 562 39,000  Level FlightAware
06:28PM 36.9210 -93.6460 29° Northeast 489 563 39,000  Level FlightAware
06:29PM 37.0160 -93.5790 29° Northeast 488 562 39,000  Level FlightAware
06:29PM 37.0890 -93.5260 30° Northeast 486 559 39,000  Level FlightAware
06:30PM 37.2240 -93.4290 30° Northeast 484 557 39,000  Level FlightAware
06:31PM 37.3150 -93.3640 30° Northeast 480 552 39,000  Level FlightAware
06:32PM 37.3930 -93.3000 33° Northeast 480 552 39,000  Level FlightAware
06:33PM 37.4640 -93.2350 36° Northeast 482 555 39,000  Level FlightAware
06:33PM 37.5450 -93.1600 36° Northeast 482 555 39,000  Level FlightAware
06:34PM 37.6070 -93.1020 37° Northeast 483 556 39,000  Level FlightAware
06:35PM 37.6960 -93.0200 36° Northeast 483 556 39,000  Level FlightAware
06:35PM 37.7710 -92.9500 36° Northeast 481 554 39,000  Level FlightAware
06:36PM 37.8460 -92.8800 36° Northeast 483 556 39,000  Level FlightAware
06:37PM 37.9170 -92.8130 37° Northeast 483 556 39,000  Level FlightAware
06:37PM 37.9890 -92.7460 36° Northeast 481 554 39,000  Level FlightAware
06:38PM 38.0680 -92.6710 37° Northeast 482 555 39,000  Level FlightAware
06:39PM 38.1450 -92.5990 36° Northeast 480 552 39,000  Level FlightAware
06:40PM 38.2220 -92.5260 37° Northeast 480 552 39,000  Level FlightAware
06:40PM 38.2850 -92.4660 37° Northeast 481 554 39,000  Level FlightAware
06:41PM 38.3460 -92.4090 36° Northeast 481 554 39,000  Level FlightAware
06:42PM 38.4180 -92.3430 36° Northeast 481 554 39,000  Level FlightAware
06:42PM 38.4750 -92.2900 36° Northeast 481 554 39,000  Level FlightAware
06:43PM 38.5500 -92.2200 36° Northeast 481 554 39,000  Level FlightAware
06:44PM 38.6590 -92.1100 38° Northeast 480 552 39,000  Level FlightAware
06:44PM 38.7140 -92.0590 36° Northeast 480 552 39,000  Level FlightAware
06:45PM 38.8040 -91.9750 36° Northeast 480 552 39,000  Level FlightAware
06:46PM 38.9080 -91.8680 39° Northeast 477 549 39,000  Level FlightAware
06:47PM 38.9830 -91.7960 37° Northeast 479 551 39,000  Level FlightAware
06:47PM 39.0580 -91.7220 37° Northeast 478 550 39,000  Level FlightAware
06:48PM 39.1180 -91.6640 37° Northeast 477 549 39,000  Level FlightAware
06:49PM 39.2060 -91.5780 37° Northeast 476 548 39,000  Level FlightAware
06:50PM 39.2840 -91.5010 37° Northeast 476 548 39,000  Level FlightAware
06:50PM 39.3500 -91.4360 37° Northeast 477 549 39,000  Level FlightAware
06:51PM 39.4260 -91.3620 37° Northeast 478 550 39,000  Level FlightAware
06:52PM 39.4980 -91.2910 37° Northeast 478 550 39,000  Level FlightAware
06:52PM 39.5690 -91.2190 38° Northeast 476 548 39,000  Level FlightAware
06:53PM 39.6480 -91.1400 38° Northeast 479 551 39,000  Level FlightAware
06:54PM 39.7310 -91.0570 38° Northeast 481 554 39,000  Level FlightAware
06:54PM 39.7960 -90.9920 38° Northeast 479 551 39,000  Level FlightAware
06:55PM 39.8710 -90.9170 37° Northeast 480 552 39,000  Level FlightAware
06:56PM 39.9450 -90.8430 37° Northeast 478 550 39,000  Level FlightAware
06:57PM 40.0210 -90.7660 38° Northeast 474 545 39,000 -240 Level FlightAware
06:57PM 40.0840 -90.7020 38° Northeast 467 537 38,700 -1,980 Descending FlightAware
06:58PM 40.1660 -90.6190 38° Northeast 454 522 36,200 -3,600 Descending FlightAware
06:59PM 40.2310 -90.5530 38° Northeast 446 513 33,500 -2,640 Descending FlightAware
06:59PM 40.2910 -90.4920 38° Northeast 473 544 33,000 -300 Descending FlightAware
07:00PM 40.4010 -90.3790 38° Northeast 474 545 33,000 -660 Level FlightAware
07:01PM 40.4740 -90.3030 38° Northeast 456 525 31,900 -2,820 Descending FlightAware
07:02PM 40.5400 -90.2360 38° Northeast 469 540 29,200 -2,580 Descending FlightAware
07:02PM 40.6120 -90.1610 38° Northeast 438 504 28,400 -1,140 Descending FlightAware
07:03PM 40.6800 -90.0900 38° Northeast 428 493 27,600 -1,200 Descending FlightAware
07:04PM 40.7400 -90.0280 38° Northeast 429 494 26,800 -1,080 Descending FlightAware
07:05PM 40.7990 -89.9670 38° Northeast 422 486 26,100 -1,200 Descending FlightAware
07:05PM 40.8700 -89.8920 39° Northeast 412 474 25,200 -1,260 Descending FlightAware
07:06PM 40.9340 -89.8260 38° Northeast 407 468 24,400 -960 Descending FlightAware
07:07PM 40.9840 -89.7730 39° Northeast 407 468 24,000 -300 Descending FlightAware
07:07PM 41.0630 -89.6900 38° Northeast 413 475 24,000  Level FlightAware
07:08PM 41.1170 -89.6330 38° Northeast 413 475 24,000 -420 Level FlightAware
07:09PM 41.1760 -89.5470 48° Northeast 432 497 23,500 -1,380 Descending FlightAware
07:09PM 41.2160 -89.4480 62° Northeast 431 496 22,000 -2,100 Descending FlightAware
07:10PM 41.2560 -89.3510 61° Northeast 424 488 20,500 -1,500 Descending FlightAware
07:11PM 41.3030 -89.2320 62° Northeast 417 480 19,600 -2,100 Descending FlightAware
07:12PM 41.3430 -89.1330 62° Northeast 402 463 17,200 -2,700 Descending FlightAware
07:12PM 41.3800 -89.0410 62° Northeast 393 452 15,900 -1,920 Descending FlightAware
07:13PM 41.4160 -88.9510 62° Northeast 381 438 14,500 -1,980 Descending FlightAware
07:14PM 41.4460 -88.8770 62° Northeast 369 425 13,400 -1,800 Descending FlightAware
07:15PM 41.4810 -88.7870 63° Northeast 360 414 12,100 -1,620 Descending FlightAware
07:15PM 41.5140 -88.7050 62° Northeast 348 400 11,000 -840 Descending FlightAware
07:16PM 41.5450 -88.6250 63° Northeast 305 351 10,900 -120 Descending FlightAware
07:17PM 41.5700 -88.5620 62° Northeast 294 338 10,900  Level FlightAware
07:17PM 41.6000 -88.5020 56° Northeast 282 325 10,900 -300 Level FlightAware
07:18PM 41.6380 -88.4440 49° Northeast 270 311 10,500 -1,200 Descending FlightAware
07:19PM 41.6600 -88.4100 49° Northeast 277 319 9,500 -1,860 Descending FlightAware
07:19PM 41.6830 -88.3740 49° Northeast 250 288 8,800 -1,320 Descending FlightAware
07:19PM 41.6930 -88.3590 48° Northeast 237 273 8,600 -1,200 Descending FlightAware
07:20PM 41.7120 -88.3300 49° Northeast 226 260 8,000 -540 Descending FlightAware
07:21PM 41.7470 -88.2770 48° Northeast 228 262 7,900 -120 Descending FlightAware
07:21PM 41.7670 -88.2460 49° Northeast 226 260 7,900  Level FlightAware
07:21PM 41.7850 -88.2180 49° Northeast 213 245 7,900  Level FlightAware
07:22PM 41.7940 -88.2090 37° Northeast 193 222 7,900  Level FlightAware
07:22PM 41.8090 -88.2050 11° North 178 205 7,900 -660 Level FlightAware
07:22PM 41.8320 -88.2060 358° North 182 209 7,400 -1,020 Descending FlightAware
07:23PM 41.8550 -88.2100 353° North 186 214 7,000 -780 Descending FlightAware
07:23PM 41.8630 -88.2200 317° Northwest 189 217 6,900 -480 Descending FlightAware
07:24PM 41.8730 -88.2490 295° West 184 212 6,700 -660 Descending FlightAware
07:24PM 41.8830 -88.2770 296° West 182 209 6,300 -840 Descending FlightAware
07:24PM 41.8910 -88.2860 320° Northwest 175 201 6,100 -1,020 Descending FlightAware
07:25PM 41.9060 -88.2880 354° North 176 203 5,800 -1,080 Descending FlightAware
07:25PM 41.9370 -88.2790 12° North 189 217 5,100 -780 Descending FlightAware
07:26PM 41.9500 -88.2480 61° Northeast 188 216 4,900 -720 Descending FlightAware
07:26PM 41.9560 -88.2340 60° Northeast 188 216 4,600 -1,080 Descending FlightAware
07:26PM 41.9660 -88.2040 66° East 187 215 4,200 -900 Descending FlightAware
07:27PM 41.9680 -88.1880 80° East 187 215 4,000 -480 Descending FlightAware
07:27PM 41.9680 -88.1560 90° East 189 217 3,900 -660 Descending FlightAware
07:28PM 41.9680 -88.1230 90° East 184 212 3,400 -1,080 Descending FlightAware
07:28PM 41.9690 -88.0890 88° East 183 211 2,900 -960 Descending FlightAware
07:29PM 41.9690 -88.0470 90° East 169 194 2,300 -900 Descending FlightAware
07:29PM 41.9690 -88.0130 90° East 142 163 1,800 -780 Descending FlightAware
07:30PM 41.9690 -87.9550 90° East 139 160 1,000 -780 Descending FlightAware
07:31PM 41.9690 -87.9320 90° East 137 158 700 -360 Descending FlightAware
07:32PM 41.9690 -87.9020 90° East 135 155 600 -180 Descending FlightAware